Time;durP1;ratioP1;P1;durP2;ratioP2;P2;SDS_P1;SDS_P2;PMS_P1;PMS_P2;Temp;Humidity;BMP_temperature;BMP_pressure;BME280_temperature;BME280_humidity;BME280_pressure;Samples;Min_cycle;Max_cycle;Signal;HPM_P1;HPM_P2
2022/09/04 00:02:24;;;;;;;1999.90;999.90;;;15.60;79.40;;;;;;5051814;28;20037;-60
2022/09/04 00:05:19;;;;;;;1999.90;999.90;;;15.60;79.50;;;;;;5068023;28;20107;-60
2022/09/04 00:07:47;;;;;;;1999.90;999.90;;;15.50;79.70;;;;;;5051903;28;20044;-60
2022/09/04 00:10:21;;;;;;;1999.90;999.90;;;15.50;79.70;;;;;;5052714;28;20056;-60
2022/09/04 00:12:54;;;;;;;1999.90;999.90;;;15.50;80.00;;;;;;5058657;28;20040;-60
2022/09/04 00:15:22;;;;;;;;;;;15.50;80.20;;;;;;5072057;28;20499;-60
2022/09/04 00:18:16;;;;;;;1999.90;999.90;;;15.40;80.00;;;;;;5072836;28;19925;-60
2022/09/04 00:20:53;;;;;;;1999.90;999.90;;;15.30;80.30;;;;;;5072681;28;20055;-60
2022/09/04 00:23:25;;;;;;;1999.90;999.90;;;15.30;80.80;;;;;;5051324;28;20502;-60
2022/09/04 00:26:12;;;;;;;1999.90;999.90;;;15.30;81.00;;;;;;5052866;28;20056;-60
2022/09/04 00:28:41;;;;;;;1999.90;999.90;;;15.20;81.20;;;;;;5052732;28;20056;-60
2022/09/04 00:31:27;;;;;;;1999.90;999.90;;;15.20;81.30;;;;;;5042147;28;20154;-60
2022/09/04 00:34:06;;;;;;;1999.90;999.90;;;15.10;81.70;;;;;;5034877;28;20107;-60
2022/09/04 00:36:37;;;;;;;1999.90;999.90;;;15.10;82.50;;;;;;5051849;28;20160;-60
2022/09/04 00:39:18;;;;;;;1999.90;999.90;;;15.10;82.20;;;;;;5052155;28;20045;-60
2022/09/04 00:42:05;;;;;;;1999.90;999.90;;;15.00;82.40;;;;;;5056671;28;20053;-60
2022/09/04 00:44:56;;;;;;;1999.90;999.90;;;15.00;82.50;;;;;;5055590;28;20482;-60
2022/09/04 00:47:34;;;;;;;1999.90;999.90;;;15.00;82.40;;;;;;5056639;28;20520;-60
2022/09/04 00:50:18;;;;;;;1999.90;999.90;;;14.90;82.50;;;;;;5035895;28;20049;-60
2022/09/04 00:53:17;;;;;;;1999.90;999.90;;;15.00;82.60;;;;;;5036283;28;20096;-60
2022/09/04 00:56:14;;;;;;;1999.90;999.90;;;14.90;82.60;;;;;;5036337;28;20539;-60
2022/09/04 00:58:51;;;;;;;1999.90;999.90;;;14.90;82.70;;;;;;5055276;28;20487;-60
2022/09/04 01:01:23;;;;;;;1999.90;999.90;;;14.90;83.00;;;;;;5034092;28;20073;-60
2022/09/04 01:04:05;;;;;;;1999.90;999.90;;;14.80;83.30;;;;;;5036436;28;20037;-60
2022/09/04 01:06:34;;;;;;;1999.90;999.90;;;14.80;83.20;;;;;;5039464;28;20064;-60
2022/09/04 01:09:23;;;;;;;1999.90;999.90;;;14.80;83.40;;;;;;5055866;28;20517;-60
2022/09/04 01:12:11;;;;;;;1999.90;999.90;;;14.80;83.50;;;;;;5055096;28;20060;-60
2022/09/04 01:14:54;;;;;;;1999.90;999.90;;;14.70;83.60;;;;;;5056341;28;20052;-60
2022/09/04 01:17:26;;;;;;;;;;;14.70;83.70;;;;;;5096978;28;20508;-60
2022/09/04 01:19:52;;;;;;;1999.90;999.90;;;14.60;83.40;;;;;;5095512;28;19927;-60
2022/09/04 01:22:29;;;;;;;1999.90;999.90;;;14.50;83.90;;;;;;5095921;28;20090;-60
2022/09/04 01:25:12;;;;;;;1999.90;999.90;;;14.50;84.10;;;;;;5095508;28;20097;-60
2022/09/04 01:27:50;;;;;;;1999.90;999.90;;;14.50;84.40;;;;;;5096344;28;20187;-60
2022/09/04 01:30:18;;;;;;;1999.90;999.90;;;14.40;84.60;;;;;;5095855;28;20101;-60
2022/09/04 01:33:14;;;;;;;1999.90;999.90;;;14.40;85.60;;;;;;5094292;28;20113;-60
2022/09/04 01:35:44;;;;;;;1999.90;999.90;;;14.30;85.20;;;;;;5096149;28;20405;-60
2022/09/04 01:38:17;;;;;;;1999.90;999.90;;;14.30;85.40;;;;;;5089148;28;20041;-60
2022/09/04 01:40:42;;;;;;;;;;;14.30;85.60;;;;;;5075294;28;20040;-60
2022/09/04 01:43:11;;;;;;;1999.90;999.90;;;14.30;85.70;;;;;;5075042;28;19973;-60
2022/09/04 01:45:55;;;;;;;1999.90;999.90;;;14.30;86.00;;;;;;5074762;28;20554;-60
2022/09/04 01:48:48;;;;;;;1999.90;999.90;;;14.20;86.30;;;;;;5074606;28;20071;-60
2022/09/04 01:51:23;;;;;;;1999.90;999.90;;;14.30;86.60;;;;;;5084627;28;20048;-60
2022/09/04 01:54:05;;;;;;;1999.90;999.90;;;14.30;86.80;;;;;;5077152;28;20143;-60
2022/09/04 01:56:52;;;;;;;1999.90;999.90;;;14.30;87.00;;;;;;5075246;28;20048;-60
2022/09/04 01:59:27;;;;;;;1999.90;999.90;;;14.20;87.30;;;;;;5083267;28;20122;-60
2022/09/04 02:02:05;;;;;;;1999.90;999.90;;;14.20;87.50;;;;;;5094856;28;20043;-60
2022/09/04 02:04:56;;;;;;;1999.90;999.90;;;14.20;87.80;;;;;;5095589;28;20235;-60
2022/09/04 02:07:43;;;;;;;1999.90;999.90;;;14.20;88.20;;;;;;5093624;28;20066;-60
2022/09/04 02:10:35;;;;;;;1999.90;999.90;;;14.20;88.40;;;;;;5095118;28;20396;-60
2022/09/04 02:13:21;;;;;;;1999.90;999.90;;;14.20;89.20;;;;;;5077970;28;20052;-60
2022/09/04 02:16:08;;;;;;;1999.90;999.90;;;14.10;88.70;;;;;;5073876;28;20068;-60
2022/09/04 02:18:55;;;;;;;1999.90;999.90;;;14.10;89.00;;;;;;5074646;28;20048;-60
2022/09/04 02:21:35;;;;;;;1999.90;999.90;;;14.00;89.20;;;;;;5073990;28;20045;-60
2022/09/04 02:24:17;;;;;;;1999.90;999.90;;;14.00;89.40;;;;;;5074859;28;20048;-60
2022/09/04 02:26:59;;;;;;;1999.90;999.90;;;14.00;89.70;;;;;;5064712;28;20059;-60
2022/09/04 02:29:36;;;;;;;1999.90;999.90;;;14.00;89.90;;;;;;5065087;28;20056;-60
2022/09/04 02:32:17;;;;;;;1999.90;999.90;;;14.00;90.00;;;;;;5066228;28;20367;-60
2022/09/04 02:34:57;;;;;;;1999.90;999.90;;;13.90;90.20;;;;;;5070114;28;20049;-60
2022/09/04 02:37:48;;;;;;;1999.90;999.90;;;13.90;90.30;;;;;;5072052;28;20045;-60
2022/09/04 02:40:17;;;;;;;1999.90;999.90;;;13.90;90.40;;;;;;5069380;28;20040;-60
2022/09/04 02:43:02;;;;;;;1999.90;999.90;;;13.90;90.50;;;;;;5073233;28;20080;-60
2022/09/04 02:45:41;;;;;;;1999.90;999.90;;;13.90;90.90;;;;;;5074531;28;20165;-60
2022/09/04 02:48:23;;;;;;;1999.90;999.90;;;13.90;90.90;;;;;;5074385;28;20143;-60
2022/09/04 02:51:19;;;;;;;1999.90;999.90;;;13.80;91.10;;;;;;5073026;28;20048;-59
2022/09/04 02:53:49;;;;;;;1999.90;999.90;;;13.90;91.20;;;;;;5074179;28;20457;-60
2022/09/04 02:56:38;;;;;;;1999.90;999.90;;;13.90;91.50;;;;;;5074181;28;20052;-60
2022/09/04 02:59:31;;;;;;;1999.90;999.90;;;13.80;91.60;;;;;;5073857;28;20098;-60
2022/09/04 03:02:00;;;;;;;1999.90;999.90;;;13.80;92.00;;;;;;5065723;28;20048;-60
2022/09/04 03:04:31;;;;;;;1999.90;999.90;;;13.70;92.20;;;;;;5072960;28;20520;-60
2022/09/04 03:07:10;;;;;;;1999.90;999.90;;;13.70;92.40;;;;;;5055555;28;20397;-60
2022/09/04 03:09:50;;;;;;;1999.90;999.90;;;13.70;92.60;;;;;;5073748;28;20051;-60
2022/09/04 03:12:42;;;;;;;1999.90;999.90;;;13.70;92.80;;;;;;5071514;28;20052;-60
2022/09/04 03:15:21;;;;;;;1999.90;999.90;;;13.70;93.00;;;;;;5073675;28;20065;-60
2022/09/04 03:17:57;;;;;;;1999.90;999.90;;;13.60;93.20;;;;;;5073108;28;20055;-60
2022/09/04 03:20:26;;;;;;;1999.90;999.90;;;13.60;93.40;;;;;;5073542;28;20075;-60
2022/09/04 03:22:56;;;;;;;1999.90;999.90;;;13.50;93.60;;;;;;5073794;28;20041;-60
2022/09/04 03:25:43;;;;;;;1999.90;999.90;;;13.60;93.90;;;;;;5072759;28;20040;-60
2022/09/04 03:28:26;;;;;;;1999.90;999.90;;;13.50;94.00;;;;;;5072674;28;20052;-60
2022/09/04 03:30:53;;;;;;;;;;;13.50;94.10;;;;;;5048592;28;20052;-60
2022/09/04 03:33:37;;;;;;;1999.90;999.90;;;13.40;94.10;;;;;;5052518;28;19920;-60
2022/09/04 03:36:14;;;;;;;1999.90;999.90;;;13.40;94.40;;;;;;5057293;28;20037;-60
2022/09/04 03:38:41;;;;;;;1999.90;999.90;;;13.30;94.50;;;;;;5047558;28;20087;-60
2022/09/04 03:41:22;;;;;;;1999.90;999.90;;;13.30;94.80;;;;;;5073404;28;20048;-60
2022/09/04 03:44:13;;;;;;;1999.90;999.90;;;13.30;95.00;;;;;;5073145;28;20086;-60
2022/09/04 03:46:57;;;;;;;1999.90;999.90;;;13.30;95.20;;;;;;5072009;28;20107;-60
2022/09/04 03:49:42;;;;;;;1999.90;999.90;;;13.20;95.40;;;;;;5055249;28;20036;-60
2022/09/04 03:52:26;;;;;;;1999.90;999.90;;;13.20;95.70;;;;;;5073351;28;20050;-60
2022/09/04 03:55:26;;;;;;;1999.90;999.90;;;13.20;95.90;;;;;;5072066;28;20070;-60
2022/09/04 03:58:16;;;;;;;1999.90;999.90;;;13.20;96.00;;;;;;5072906;28;20123;-60
2022/09/04 04:01:03;;;;;;;1999.90;999.90;;;13.10;96.10;;;;;;5072249;28;20070;-60
2022/09/04 04:03:50;;;;;;;1999.90;999.90;;;13.10;96.40;;;;;;5072629;28;20079;-60
2022/09/04 04:06:40;;;;;;;1999.90;999.90;;;13.10;96.60;;;;;;5072856;28;20063;-60
2022/09/04 04:09:24;;;;;;;1999.90;999.90;;;13.10;96.70;;;;;;5071867;28;20052;-59
2022/09/04 04:11:52;;;;;;;1999.90;999.90;;;13.00;96.80;;;;;;5072282;28;20048;-60
2022/09/04 04:14:36;;;;;;;1999.90;999.90;;;13.00;97.00;;;;;;5086952;28;20099;-60
2022/09/04 04:17:10;;;;;;;1999.90;999.90;;;13.00;97.20;;;;;;5072944;28;20048;-60
2022/09/04 04:19:48;;;;;;;1999.90;999.90;;;13.00;97.40;;;;;;5072189;28;20056;-60
2022/09/04 04:22:31;;;;;;;1999.90;999.90;;;12.90;97.50;;;;;;5052072;28;20049;-60
2022/09/04 04:25:03;;;;;;;;;;;13.00;97.50;;;;;;5053252;28;20127;-60
2022/09/04 04:27:48;;;;;;;1999.90;999.90;;;13.00;97.10;;;;;;5034599;28;19920;-60
2022/09/04 04:30:16;;;;;;;1999.90;999.90;;;12.90;97.50;;;;;;5046994;28;20059;-60
2022/09/04 04:32:47;;;;;;;1999.90;999.90;;;12.90;97.70;;;;;;5072653;28;20040;-60
2022/09/04 04:35:40;;;;;;;1999.90;999.90;;;12.90;97.90;;;;;;5071710;28;20355;-60
2022/09/04 04:38:18;;;;;;;1999.90;999.90;;;12.80;98.10;;;;;;5072002;28;20558;-60
2022/09/04 04:41:13;;;;;;;1999.90;999.90;;;12.80;98.30;;;;;;5072587;28;20490;-60
2022/09/04 04:44:11;;;;;;;1999.90;999.90;;;12.80;98.30;;;;;;5071637;28;20063;-60
2022/09/04 04:46:53;;;;;;;1999.90;999.90;;;12.80;98.50;;;;;;5071788;28;20494;-60
2022/09/04 04:49:32;;;;;;;1999.90;999.90;;;12.70;98.50;;;;;;5071471;28;20048;-60
2022/09/04 04:52:28;;;;;;;1999.90;999.90;;;12.80;98.60;;;;;;5072586;28;20132;-60
2022/09/04 04:55:20;;;;;;;1999.90;999.90;;;12.70;98.70;;;;;;5072166;28;20076;-60
2022/09/04 04:57:52;;;;;;;1999.90;999.90;;;12.70;99.10;;;;;;5071368;28;20123;-60
2022/09/04 05:00:38;;;;;;;1999.90;999.90;;;12.70;99.00;;;;;;5072572;28;20124;-60
2022/09/04 05:03:20;;;;;;;1999.90;999.90;;;12.70;99.00;;;;;;5071693;28;20049;-60
2022/09/04 05:05:48;;;;;;;1999.90;999.90;;;12.80;99.10;;;;;;5071609;28;20494;-60
2022/09/04 05:08:34;;;;;;;1999.90;999.90;;;12.90;99.10;;;;;;5069878;28;20045;-60
2022/09/04 05:11:12;;;;;;;1999.90;999.90;;;13.00;99.30;;;;;;5071235;28;20036;-60
2022/09/04 05:14:10;;;;;;;1999.90;999.90;;;13.10;99.30;;;;;;5071694;28;20095;-60
2022/09/04 05:16:53;;;;;;;1999.90;999.90;;;13.10;99.20;;;;;;5070944;28;20461;-60
2022/09/04 05:19:44;;;;;;;1999.90;999.90;;;13.20;99.00;;;;;;5091627;28;20044;-60
2022/09/04 05:22:15;;;;;;;1999.90;999.90;;;13.20;98.90;;;;;;5091822;28;20051;-60
2022/09/04 05:24:58;;;;;;;1999.90;999.90;;;13.20;98.90;;;;;;5091632;28;20048;-60
2022/09/04 05:27:51;;;;;;;1999.90;999.90;;;13.30;98.90;;;;;;5094223;28;20165;-60
2022/09/04 05:30:27;;;;;;;1999.90;999.90;;;13.40;98.90;;;;;;5095789;28;20398;-60
2022/09/04 05:33:09;;;;;;;1999.90;999.90;;;13.50;98.90;;;;;;5094566;28;20048;-60
2022/09/04 05:36:07;;;;;;;1999.90;999.90;;;13.60;98.80;;;;;;5095831;28;20051;-60
2022/09/04 05:38:56;;;;;;;1999.90;999.90;;;13.60;98.70;;;;;;5079497;28;20177;-60
2022/09/04 05:41:34;;;;;;;1999.90;999.90;;;13.60;98.70;;;;;;5056689;28;20066;-60
2022/09/04 05:44:13;;;;;;;1999.90;999.90;;;13.70;98.70;;;;;;5075530;28;20052;-60
2022/09/04 05:47:06;;;;;;;1999.90;999.90;;;13.70;98.90;;;;;;5074635;28;20055;-60
2022/09/04 05:49:58;;;;;;;1999.90;999.90;;;13.70;98.90;;;;;;5085237;28;20105;-60
2022/09/04 05:52:36;;;;;;;1999.90;999.90;;;13.80;99.00;;;;;;5094828;28;20065;-60
2022/09/04 05:55:15;;;;;;;1999.90;999.90;;;13.90;99.00;;;;;;5095325;28;20374;-60
2022/09/04 05:57:48;;;;;;;1999.90;999.90;;;14.00;98.90;;;;;;5094914;28;20036;-60
2022/09/04 06:00:16;;;;;;;1999.90;999.90;;;14.10;98.90;;;;;;5075632;28;20037;-60
2022/09/04 06:02:57;;;;;;;1999.90;999.90;;;14.50;98.50;;;;;;5074426;28;20084;-60
2022/09/04 06:05:31;;;;;;;1999.90;999.90;;;14.40;98.70;;;;;;5054857;28;20093;-60
2022/09/04 06:08:11;;;;;;;1999.90;999.90;;;14.70;98.60;;;;;;5072624;28;20055;-60
2022/09/04 06:10:45;;;;;;;1999.90;999.90;;;14.80;98.40;;;;;;5054738;28;20052;-60
2022/09/04 06:13:38;;;;;;;1999.90;999.90;;;15.00;98.10;;;;;;5054954;28;20049;-60
2022/09/04 06:16:13;;;;;;;1999.90;999.90;;;15.20;97.70;;;;;;5064921;28;20051;-60
2022/09/04 06:19:11;;;;;;;1999.90;999.90;;;15.30;97.50;;;;;;5074693;28;20045;-60
2022/09/04 06:22:09;;;;;;;1999.90;999.90;;;15.50;97.10;;;;;;5074213;28;20117;-60
2022/09/04 06:24:42;;;;;;;1999.90;999.90;;;15.70;96.70;;;;;;5074407;28;20045;-60
2022/09/04 06:27:17;;;;;;;1999.90;999.90;;;15.80;96.40;;;;;;5074818;28;20055;-60
2022/09/04 06:30:05;;;;;;;1999.90;999.90;;;16.00;96.10;;;;;;5073810;28;20521;-60
2022/09/04 06:32:40;;;;;;;1999.90;999.90;;;16.00;95.80;;;;;;5074199;28;20052;-60
2022/09/04 06:35:13;;;;;;;1999.90;999.90;;;15.90;95.60;;;;;;5053925;28;20056;-60
2022/09/04 06:38:03;;;;;;;1999.90;999.90;;;16.00;95.30;;;;;;5067228;28;20383;-60
2022/09/04 06:40:46;;;;;;;1999.90;999.90;;;16.20;95.40;;;;;;5071556;28;20495;-60
2022/09/04 06:43:34;;;;;;;1999.90;999.90;;;16.30;95.30;;;;;;5073433;28;20558;-60
2022/09/04 06:46:22;;;;;;;1999.90;999.90;;;16.40;95.10;;;;;;5074328;28;20398;-60
2022/09/04 06:48:59;;;;;;;1999.90;999.90;;;16.50;95.00;;;;;;5044181;28;20060;-60
2022/09/04 06:51:38;;;;;;;1999.90;999.90;;;16.60;94.80;;;;;;5073767;28;20092;-60
2022/09/04 06:54:20;;;;;;;1999.90;999.90;;;16.70;94.60;;;;;;5074285;28;20075;-60
2022/09/04 06:57:00;;;;;;;1999.90;999.90;;;16.90;94.60;;;;;;5073019;28;20051;-60
2022/09/04 06:59:44;;;;;;;1999.90;999.90;;;17.00;94.50;;;;;;5071267;28;20427;-60
2022/09/04 07:02:18;;;;;;;1999.90;999.90;;;17.10;94.30;;;;;;5071787;28;20055;-60
2022/09/04 07:04:54;;;;;;;1999.90;999.90;;;17.30;94.00;;;;;;5073318;28;20048;-60
2022/09/04 07:07:33;;;;;;;1999.90;999.90;;;17.40;93.70;;;;;;5074198;28;20051;-60
2022/09/04 07:10:10;;;;;;;1999.90;999.90;;;17.50;93.80;;;;;;5072592;28;20137;-60
2022/09/04 07:12:56;;;;;;;1999.90;999.90;;;17.70;93.40;;;;;;5073750;28;20048;-60
2022/09/04 07:15:35;;;;;;;1999.90;999.90;;;17.80;93.20;;;;;;5073739;28;20059;-60
2022/09/04 07:18:22;;;;;;;1999.90;999.90;;;18.00;93.10;;;;;;5058610;28;20164;-60
2022/09/04 07:20:59;;;;;;;1999.90;999.90;;;18.10;92.80;;;;;;5073131;28;20048;-60
2022/09/04 07:23:43;;;;;;;1999.90;999.90;;;18.30;92.50;;;;;;5071550;28;20099;-60
2022/09/04 07:26:28;;;;;;;1999.90;999.90;;;18.50;92.00;;;;;;5071375;28;20044;-60
2022/09/04 07:29:20;;;;;;;1999.90;999.90;;;18.70;91.40;;;;;;5073764;28;20032;-60
2022/09/04 07:32:00;;;;;;;1999.90;999.90;;;19.00;91.30;;;;;;5072522;28;20106;-60
2022/09/04 07:34:40;;;;;;;1999.90;999.90;;;19.10;90.90;;;;;;5073342;28;20460;-60
2022/09/04 07:37:26;;;;;;;1999.90;999.90;;;19.30;90.60;;;;;;5053362;28;20487;-60
2022/09/04 07:40:14;;;;;;;1999.90;999.90;;;19.40;90.20;;;;;;5068204;28;20397;-60
2022/09/04 07:42:47;;;;;;;1999.90;999.90;;;19.60;89.70;;;;;;5072841;28;20049;-60
2022/09/04 07:45:33;;;;;;;1999.90;999.90;;;19.80;89.10;;;;;;5069256;28;20048;-60
2022/09/04 07:48:14;;;;;;;1999.90;999.90;;;20.00;88.50;;;;;;5072373;28;20401;-59
2022/09/04 07:51:09;;;;;;;1999.90;999.90;;;20.20;87.60;;;;;;5064109;28;20048;-60
2022/09/04 07:53:54;;;;;;;1999.90;999.90;;;20.30;87.00;;;;;;5070602;28;20166;-60
2022/09/04 07:56:41;;;;;;;1999.90;999.90;;;20.50;86.70;;;;;;5071352;28;20059;-60
2022/09/04 07:59:23;;;;;;;1999.90;999.90;;;20.70;86.20;;;;;;5072514;28;20056;-61
2022/09/04 08:01:49;;;;;;;1999.90;999.90;;;20.80;85.40;;;;;;5072603;28;20079;-60
2022/09/04 08:04:36;;;;;;;1999.90;999.90;;;20.90;85.00;;;;;;5073162;28;20048;-61
2022/09/04 08:07:11;;;;;;;1999.90;999.90;;;21.10;84.70;;;;;;5071804;28;20054;-60
2022/09/04 08:09:43;;;;;;;1999.90;999.90;;;21.20;84.30;;;;;;5059196;28;20048;-61
2022/09/04 08:12:13;;;;;;;1999.90;999.90;;;21.30;84.20;;;;;;5070739;28;20541;-61
2022/09/04 08:14:58;;;;;;;1999.90;999.90;;;21.50;83.90;;;;;;5064527;28;20053;-61
2022/09/04 08:17:47;;;;;;;1999.90;999.90;;;21.60;83.50;;;;;;5063163;28;20045;-61
2022/09/04 08:20:39;;;;;;;1999.90;999.90;;;21.70;82.50;;;;;;5069765;28;20460;-61
2022/09/04 08:23:14;;;;;;;1999.90;999.90;;;22.10;96.90;;;;;;5052238;28;20479;-61
2022/09/04 08:26:12;;;;;;;1999.90;999.90;;;22.10;81.90;;;;;;5045287;28;20087;-61
2022/09/04 08:28:56;;;;;;;1999.90;999.90;;;22.20;81.70;;;;;;5066187;28;20048;-61
2022/09/04 08:31:31;;;;;;;1999.90;999.90;;;22.40;81.10;;;;;;5071902;28;20044;-61
2022/09/04 08:34:28;;;;;;;1999.90;999.90;;;22.60;80.90;;;;;;5070863;28;20064;-61
2022/09/04 08:37:14;;;;;;;1999.90;999.90;;;23.00;80.00;;;;;;5065200;28;20032;-61
2022/09/04 08:40:11;;;;;;;1999.90;999.90;;;23.00;80.40;;;;;;5072413;28;20056;-61
2022/09/04 08:43:03;;;;;;;1999.90;999.90;;;23.10;78.40;;;;;;5071448;28;20506;-61
2022/09/04 08:45:53;;;;;;;1999.90;999.90;;;23.30;77.30;;;;;;5070528;28;20055;-61
2022/09/04 08:48:36;;;;;;;1999.90;999.90;;;23.50;77.40;;;;;;5071020;28;20039;-60
2022/09/04 08:51:25;;;;;;;1999.90;999.90;;;23.50;77.00;;;;;;5072270;28;20102;-61
2022/09/04 08:54:24;;;;;;;1999.90;999.90;;;23.50;76.80;;;;;;5053220;28;20057;-61
2022/09/04 08:57:11;;;;;;;1999.90;999.90;;;23.70;76.80;;;;;;5065946;28;20053;-61
2022/09/04 08:59:49;;;;;;;1999.90;999.90;;;23.70;76.90;;;;;;5072560;28;20045;-61
2022/09/04 09:02:17;;;;;;;1999.90;999.90;;;23.90;76.10;;;;;;5056863;28;20055;-61
2022/09/04 09:05:39;;;;;;;1999.90;999.90;;;24.10;75.90;;;;;;5076025;28;20090;-61
2022/09/04 09:08:14;;;;;;;1999.90;999.90;;;24.20;75.80;;;;;;5076023;28;20041;-61
2022/09/04 09:11:10;;;;;;;1999.90;999.90;;;24.30;75.70;;;;;;5075309;28;20080;-61
2022/09/04 09:13:37;;;;;;;1999.90;999.90;;;24.50;75.00;;;;;;5067330;28;20048;-61
2022/09/04 09:16:18;;;;;;;1999.90;999.90;;;24.60;74.40;;;;;;5063189;28;20041;-61
2022/09/04 09:19:06;;;;;;;1999.90;999.90;;;24.80;74.60;;;;;;5055733;28;20438;-61
2022/09/04 09:21:48;;;;;;;1999.90;999.90;;;25.00;74.30;;;;;;5055731;28;20049;-61
2022/09/04 09:25:05;;;;;;;1999.90;999.90;;;25.20;74.10;;;;;;5054933;28;20053;-61
2022/09/04 09:27:34;;;;;;;1999.90;999.90;;;25.40;73.30;;;;;;5055719;28;20048;-61
2022/09/04 09:30:12;;;;;;;1999.90;999.90;;;25.50;72.50;;;;;;5055251;28;20047;-61
2022/09/04 09:32:54;;;;;;;1999.90;999.90;;;25.70;72.40;;;;;;5055097;28;20056;-61
2022/09/04 09:35:40;;;;;;;;;;;25.90;72.00;;;;;;5056371;28;20053;-61
2022/09/04 09:38:18;;;;;;;1999.90;999.90;;;26.10;72.00;;;;;;5054755;28;19966;-61
2022/09/04 09:41:10;;;;;;;1999.90;999.90;;;26.30;70.60;;;;;;5055411;28;20081;-61
2022/09/04 09:44:15;;;;;;;1999.90;999.90;;;26.30;69.90;;;;;;5055158;28;20519;-61
2022/09/04 09:46:54;;;;;;;1999.90;999.90;;;26.30;69.10;;;;;;5053340;28;20495;-61
2022/09/04 09:49:54;;;;;;;1999.90;999.90;;;26.40;70.10;;;;;;5055151;28;20043;-61
2022/09/04 09:52:37;;;;;;;1999.90;999.90;;;26.60;70.20;;;;;;5054649;28;20057;-61
2022/09/04 09:55:16;;;;;;;;;;;26.80;69.60;;;;;;5055909;28;20052;-61
2022/09/04 09:58:18;;;;;;;1999.90;999.90;;;27.00;69.80;;;;;;5037066;28;19921;-61
2022/09/04 10:01:06;;;;;;;1999.90;999.90;;;27.20;69.30;;;;;;5036547;28;20053;-61
2022/09/04 10:03:38;;;;;;;1999.90;999.90;;;27.40;68.20;;;;;;5047066;28;20091;-61
2022/09/04 10:06:11;;;;;;;1999.90;999.90;;;27.40;66.90;;;;;;5054547;28;20044;-61
2022/09/04 10:08:50;;;;;;;1999.90;999.90;;;27.70;67.30;;;;;;5045184;28;20140;-61
2022/09/04 10:11:35;;;;;;;1999.90;999.90;;;27.90;65.40;;;;;;5052107;28;20533;-61
2022/09/04 10:14:14;;;;;;;1999.90;999.90;;;;;;;;;;5034614;28;20137;-61
2022/09/04 10:17:06;;;;;;;1999.90;999.90;;;28.50;62.60;;;;;;5067155;28;20491;-61
2022/09/04 10:19:47;;;;;;;1999.90;999.90;;;;;;;;;;5071300;28;20040;-61
2022/09/04 10:22:55;;;;;;;1999.90;999.90;;;29.80;78.20;;;;;;5063780;28;20045;-61
2022/09/04 10:25:38;;;;;;;1999.90;999.90;;;30.40;59.50;;;;;;5053265;28;20059;-61
2022/09/04 10:28:16;;;;;;;1999.90;999.90;;;30.80;58.40;;;;;;5036274;28;20128;-61
2022/09/04 10:31:04;;;;;;;1999.90;999.90;;;31.30;56.80;;;;;;5072523;28;20044;-61
2022/09/04 10:33:50;;;;;;;1999.90;999.90;;;31.60;55.40;;;;;;5085578;28;20040;-61
2022/09/04 10:36:34;;;;;;;1999.90;999.90;;;32.00;54.90;;;;;;5078553;28;20463;-61
2022/09/04 10:42:25;;;;;;;1999.90;999.90;;;32.90;53.50;;;;;;5072320;28;20496;-61
2022/09/04 10:45:05;;;;;;;1999.90;999.90;;;33.50;51.90;;;;;;5078889;28;20111;-61
2022/09/04 10:47:44;;;;;;;1999.90;999.90;;;;;;;;;;5074271;28;20048;-61
2022/09/04 10:50:26;;;;;;;1999.90;999.90;;;34.40;53.30;;;;;;5074572;28;20044;-62
2022/09/04 10:53:05;;;;;;;1999.90;999.90;;;34.50;49.60;;;;;;5094238;28;20139;-62
2022/09/04 10:55:42;;;;;;;1999.90;999.90;;;;;;;;;;5090781;28;20093;-62
2022/09/04 10:58:23;;;;;;;1999.90;999.90;;;35.10;48.00;;;;;;5067391;28;20090;-61
2022/09/04 11:01:26;;;;;;;1999.90;999.90;;;35.00;48.60;;;;;;5067826;28;20375;-62
2022/09/04 11:03:51;;;;;;;;;;;35.00;48.60;;;;;;5071202;28;20041;-62
2022/09/04 11:06:32;;;;;;;1999.90;999.90;;;34.90;48.60;;;;;;5073305;28;19939;-62
2022/09/04 11:09:20;;;;;;;1999.90;999.90;;;35.10;48.30;;;;;;5070486;28;20056;-62
2022/09/04 11:12:11;;;;;;;1999.90;999.90;;;35.30;47.30;;;;;;5072193;28;20048;-61
2022/09/04 11:15:02;;;;;;;1999.90;999.90;;;35.40;46.40;;;;;;5065819;28;20059;-62
2022/09/04 11:17:53;;;;;;;1999.90;999.90;;;35.20;47.10;;;;;;5069826;28;20048;-62
2022/09/04 11:20:55;;;;;;;1999.90;999.90;;;34.90;46.90;;;;;;5072405;28;20410;-61
2022/09/04 11:23:40;;;;;;;1999.90;999.90;;;34.80;46.70;;;;;;5054113;28;20048;-61
2022/09/04 11:26:17;;;;;;;1999.90;999.90;;;34.60;47.50;;;;;;5055142;28;20059;-61
2022/09/04 11:29:09;;;;;;;1999.90;999.90;;;34.50;46.30;;;;;;5073018;28;20453;-61
2022/09/04 11:31:47;;;;;;;;;;;34.60;47.00;;;;;;5073388;28;20059;-61
2022/09/04 11:34:37;;;;;;;1999.90;999.90;;;34.70;47.00;;;;;;5073996;28;20447;-61
2022/09/04 11:37:24;;;;;;;1999.90;999.90;;;34.90;46.80;;;;;;5076548;28;20041;-61
2022/09/04 11:40:19;;;;;;;1999.90;999.90;;;34.90;46.50;;;;;;5056736;28;20045;-62
2022/09/04 11:43:00;;;;;;;1999.90;999.90;;;35.20;46.60;;;;;;5062526;28;20138;-62
2022/09/04 11:46:02;;;;;;;1999.90;999.90;;;35.40;45.30;;;;;;5091762;28;20040;-61
2022/09/04 11:48:41;;;;;;;1999.90;999.90;;;35.60;45.30;;;;;;5069766;28;20160;-62
2022/09/04 11:51:20;;;;;;;1999.90;999.90;;;35.90;44.20;;;;;;5059911;28;20044;-61
2022/09/04 11:54:13;;;;;;;1999.90;999.90;;;35.80;44.70;;;;;;5063656;28;20059;-62
2022/09/04 11:56:41;;;;;;;1999.90;999.90;;;35.80;43.80;;;;;;5070119;28;20042;-62
2022/09/04 11:59:13;;;;;;;1999.90;999.90;;;36.00;44.30;;;;;;5071932;28;20052;-62
2022/09/04 12:02:16;;;;;;;1999.90;999.90;;;36.50;44.10;;;;;;5072007;28;20402;-62
2022/09/04 12:05:01;;;;;;;1999.90;999.90;;;37.30;43.40;;;;;;5059565;28;20045;-61
2022/09/04 12:07:54;;;;;;;1999.90;999.90;;;37.60;42.30;;;;;;5066125;28;20056;-61
2022/09/04 12:10:22;;;;;;;;;;;37.60;42.00;;;;;;5065415;28;20052;-61
2022/09/04 12:12:57;;;;;;;1999.90;999.90;;;37.50;42.20;;;;;;5068674;28;19920;-61
2022/09/04 12:15:32;;;;;;;1999.90;999.90;;;37.50;41.60;;;;;;5048855;28;20057;-62
2022/09/04 12:18:20;;;;;;;1999.90;999.90;;;37.60;41.90;;;;;;5072786;28;20098;-61
2022/09/04 12:21:00;;;;;;;1999.90;999.90;;;37.60;42.10;;;;;;5090855;28;20059;-62
2022/09/04 12:23:40;;;;;;;1999.90;999.90;;;37.70;42.20;;;;;;5052641;28;20049;-62
2022/09/04 12:26:21;;;;;;;1999.90;999.90;;;38.00;42.10;;;;;;5052288;28;20045;-62
2022/09/04 12:29:02;;;;;;;1999.90;999.90;;;38.40;41.60;;;;;;5064800;28;20044;-62
2022/09/04 12:32:03;;;;;;;1999.90;999.90;;;38.50;40.20;;;;;;5072610;28;20087;-61
2022/09/04 12:34:50;;;;;;;1999.90;999.90;;;38.20;40.90;;;;;;5071455;28;20052;-62
2022/09/04 12:37:32;;;;;;;1999.90;999.90;;;38.00;41.10;;;;;;5088776;28;20066;-62
2022/09/04 12:40:25;;;;;;;1999.90;999.90;;;38.10;40.90;;;;;;5096320;28;20483;-62
2022/09/04 12:42:59;;;;;;;1999.90;999.90;;;38.50;41.30;;;;;;5078995;28;20049;-62
2022/09/04 12:45:39;;;;;;;1999.90;999.90;;;38.60;40.60;;;;;;5078498;28;20530;-62
2022/09/04 12:48:17;;;;;;;1999.90;999.90;;;38.50;40.70;;;;;;5077919;28;20444;-62
2022/09/04 12:50:56;;;;;;;1999.90;999.90;;;38.90;40.90;;;;;;5060908;28;20048;-62
2022/09/04 12:53:25;;;;;;;1999.90;999.90;;;39.30;40.00;;;;;;5080817;28;20036;-61
2022/09/04 12:55:57;;;;;;;1999.90;999.90;;;39.40;40.10;;;;;;5098021;28;20052;-62
2022/09/04 12:58:52;;;;;;;1999.90;999.90;;;39.30;39.90;;;;;;5098715;28;20633;-62
2022/09/04 13:01:28;;;;;;;1999.90;999.90;;;39.10;39.90;;;;;;5098689;28;20044;-62
2022/09/04 13:04:13;;;;;;;1999.90;999.90;;;38.90;40.10;;;;;;5080918;28;20048;-61
2022/09/04 13:07:00;;;;;;;1999.90;999.90;;;38.60;40.50;;;;;;5058569;28;20084;-62
2022/09/04 13:09:40;;;;;;;1999.90;999.90;;;38.20;40.50;;;;;;5058240;28;20051;-62
2022/09/04 13:12:12;;;;;;;1999.90;999.90;;;38.20;40.60;;;;;;5078203;28;20063;-61
2022/09/04 13:14:49;;;;;;;1999.90;999.90;;;38.50;40.30;;;;;;5076532;28;20045;-62
2022/09/04 13:17:42;;;;;;;1999.90;999.90;;;38.70;40.80;;;;;;5063639;28;20053;-62
2022/09/04 13:20:33;;;;;;;1999.90;999.90;;;39.00;40.40;;;;;;5068567;28;20036;-62
2022/09/04 13:23:16;;;;;;;1999.90;999.90;;;39.20;40.10;;;;;;5083985;28;20041;-62